createdAt,value
2022-09-09T00:00:30.540Z,0.00
2022-09-09T00:01:30.517Z,0.00
2022-09-09T00:02:30.573Z,0.00
2022-09-09T00:03:30.554Z,0.00
2022-09-09T00:04:30.492Z,0.00
2022-09-09T00:05:30.477Z,0.00
2022-09-09T00:06:30.438Z,0.00
2022-09-09T00:07:30.473Z,0.00
2022-09-09T00:08:30.429Z,0.00
2022-09-09T00:09:30.424Z,0.00
2022-09-09T00:10:30.407Z,0.00
2022-09-09T00:11:31.579Z,0.00
2022-09-09T00:12:30.404Z,0.00
2022-09-09T00:13:30.344Z,0.00
2022-09-09T00:14:30.340Z,0.00
2022-09-09T00:15:30.384Z,0.00
2022-09-09T00:16:30.309Z,0.00
2022-09-09T00:17:30.314Z,0.00
2022-09-09T00:18:30.314Z,0.00
2022-09-09T00:19:30.274Z,0.00
2022-09-09T00:20:30.270Z,0.00
2022-09-09T00:21:30.256Z,0.00
2022-09-09T00:22:30.237Z,0.00
2022-09-09T00:23:30.351Z,0.00
2022-09-09T00:24:30.218Z,0.00
2022-09-09T00:25:30.184Z,0.00
2022-09-09T00:26:30.176Z,0.00
2022-09-09T00:27:30.178Z,0.00
2022-09-09T00:28:30.146Z,0.00
2022-09-09T00:29:30.189Z,0.00
2022-09-09T00:30:30.120Z,0.00
2022-09-09T00:31:30.221Z,0.00
2022-09-09T00:32:30.101Z,0.00
2022-09-09T00:33:30.094Z,0.00
2022-09-09T00:34:30.057Z,0.00
2022-09-09T00:35:30.061Z,0.00
2022-09-09T00:36:30.054Z,0.00
2022-09-09T00:37:30.031Z,0.00
2022-09-09T00:38:30.011Z,0.00
2022-09-09T00:39:30.043Z,0.00
2022-09-09T00:40:29.992Z,0.00
2022-09-09T00:41:29.961Z,0.00
2022-09-09T00:42:29.953Z,0.00
2022-09-09T00:43:29.955Z,0.00
2022-09-09T00:44:29.923Z,0.00
2022-09-09T00:45:29.925Z,0.00
2022-09-09T00:46:30.001Z,0.00
2022-09-09T00:47:29.883Z,0.00
2022-09-09T00:48:29.884Z,0.00
2022-09-09T00:49:29.854Z,0.00
2022-09-09T00:50:29.852Z,0.00
2022-09-09T00:51:29.857Z,0.00
2022-09-09T00:52:29.830Z,0.00
2022-09-09T00:53:29.801Z,0.00
2022-09-09T00:54:29.784Z,0.00
2022-09-09T00:55:30.785Z,0.00
2022-09-09T00:56:29.758Z,0.00
2022-09-09T00:57:29.757Z,0.00
2022-09-09T00:58:29.774Z,0.00
2022-09-09T00:59:29.715Z,0.00
2022-09-09T01:00:29.708Z,0.00
2022-09-09T01:01:29.772Z,0.00
2022-09-09T01:02:29.754Z,0.00
2022-09-09T01:03:29.669Z,0.00
2022-09-09T01:04:29.647Z,0.00
2022-09-09T01:05:29.642Z,0.00
2022-09-09T01:06:29.650Z,0.00
2022-09-09T01:07:29.618Z,0.00
2022-09-09T01:08:29.631Z,0.00
2022-09-09T01:09:29.589Z,0.00
2022-09-09T01:10:29.591Z,0.00
2022-09-09T01:11:29.547Z,0.00
2022-09-09T01:12:29.543Z,0.00
2022-09-09T01:13:29.529Z,0.00
2022-09-09T01:14:30.452Z,0.00
2022-09-09T01:15:29.524Z,0.00
2022-09-09T01:16:29.559Z,0.00
2022-09-09T01:17:29.495Z,0.00
2022-09-09T01:18:29.512Z,0.00
2022-09-09T01:19:29.451Z,0.00
2022-09-09T01:20:29.439Z,0.00
2022-09-09T01:21:29.409Z,0.00
2022-09-09T01:22:29.537Z,0.00
2022-09-09T01:23:29.397Z,0.00
2022-09-09T01:24:29.377Z,0.00
2022-09-09T01:25:29.356Z,0.00
2022-09-09T01:26:29.380Z,0.00
2022-09-09T01:27:29.348Z,0.00
2022-09-09T01:28:29.493Z,0.00
2022-09-09T01:29:29.309Z,0.00
2022-09-09T01:30:29.335Z,0.00
2022-09-09T01:31:29.265Z,0.00
2022-09-09T01:32:30.230Z,0.00
2022-09-09T01:33:29.245Z,0.00
2022-09-09T01:34:29.224Z,0.00
2022-09-09T01:35:29.239Z,0.00
2022-09-09T01:36:29.198Z,0.00
2022-09-09T01:37:29.221Z,0.00
2022-09-09T01:38:29.247Z,0.00
2022-09-09T01:39:29.392Z,0.00
2022-09-09T01:40:29.174Z,0.00
2022-09-09T01:41:29.138Z,0.00
2022-09-09T01:42:29.119Z,0.00
2022-09-09T01:43:29.124Z,0.00
2022-09-09T01:44:29.088Z,0.00
2022-09-09T01:45:29.096Z,0.00
2022-09-09T01:46:29.108Z,0.00
2022-09-09T01:47:29.057Z,0.00
2022-09-09T01:48:29.099Z,0.00
2022-09-09T01:49:29.021Z,0.00
2022-09-09T01:50:29.161Z,0.00
2022-09-09T01:51:31.855Z,0.00
2022-09-09T01:52:28.976Z,0.00
2022-09-09T01:53:28.976Z,0.00
2022-09-09T01:54:29.311Z,0.00
2022-09-09T01:55:28.943Z,0.00
2022-09-09T01:56:29.040Z,0.00
2022-09-09T01:57:29.250Z,0.00
2022-09-09T01:58:29.016Z,0.00
2022-09-09T02:00:42.899Z,0.00
2022-09-09T02:01:40.919Z,0.00
2022-09-09T02:02:40.526Z,0.00
2022-09-09T02:03:40.396Z,0.00
2022-09-09T02:04:41.469Z,0.00
2022-09-09T02:05:40.369Z,0.00
2022-09-09T02:06:40.326Z,0.00
2022-09-09T02:07:40.363Z,0.00
2022-09-09T02:08:40.283Z,0.00
2022-09-09T02:09:40.290Z,0.00
2022-09-09T02:10:40.248Z,0.00
2022-09-09T02:11:40.231Z,0.00
2022-09-09T02:12:40.238Z,0.00
2022-09-09T02:13:40.327Z,0.00
2022-09-09T02:14:40.188Z,0.00
2022-09-09T02:15:40.190Z,0.00
2022-09-09T02:16:40.219Z,0.00
2022-09-09T02:17:40.169Z,0.00
2022-09-09T02:18:40.170Z,0.00
2022-09-09T02:19:40.157Z,0.00
2022-09-09T02:20:40.126Z,0.00
2022-09-09T02:21:40.118Z,0.00
2022-09-09T02:22:40.079Z,0.00
2022-09-09T02:23:40.082Z,0.00
2022-09-09T02:24:40.060Z,0.00
2022-09-09T02:25:40.064Z,0.00
2022-09-09T02:26:40.052Z,0.00
2022-09-09T02:27:40.029Z,0.00
2022-09-09T02:28:40.030Z,0.00
2022-09-09T02:29:39.989Z,0.00
2022-09-09T02:30:40.138Z,0.00
2022-09-09T02:31:39.974Z,0.00
2022-09-09T02:32:39.940Z,0.00
2022-09-09T02:33:39.954Z,0.00
2022-09-09T02:34:40.015Z,0.00
2022-09-09T02:35:39.931Z,0.00
2022-09-09T02:36:40.017Z,0.00
2022-09-09T02:37:39.882Z,0.00
2022-09-09T02:38:39.932Z,0.00
2022-09-09T02:39:39.953Z,0.00
2022-09-09T02:40:39.861Z,0.00
2022-09-09T02:41:39.843Z,0.00
2022-09-09T02:42:39.846Z,0.00
2022-09-09T02:43:39.818Z,0.00
2022-09-09T02:44:39.783Z,0.00
2022-09-09T02:45:39.829Z,0.00
2022-09-09T02:46:39.788Z,0.00
2022-09-09T02:47:39.745Z,0.00
2022-09-09T02:48:39.749Z,0.00
2022-09-09T02:49:39.735Z,0.00
2022-09-09T02:50:39.707Z,0.00
2022-09-09T02:51:39.708Z,0.00
2022-09-09T02:52:39.668Z,0.00
2022-09-09T02:53:39.794Z,0.00
2022-09-09T02:54:39.670Z,0.00
2022-09-09T02:55:39.648Z,0.00
2022-09-09T02:56:39.619Z,0.00
2022-09-09T02:57:42.323Z,0.00
2022-09-09T02:58:39.602Z,0.00
2022-09-09T02:59:39.589Z,0.00
2022-09-09T03:00:39.601Z,0.00
2022-09-09T03:01:39.603Z,0.00
2022-09-09T03:02:39.629Z,0.00
2022-09-09T03:03:39.556Z,0.00
2022-09-09T03:04:39.641Z,0.00
2022-09-09T03:05:39.525Z,0.00
2022-09-09T03:06:39.505Z,0.00
2022-09-09T03:07:39.479Z,0.00
2022-09-09T03:08:39.467Z,0.00
2022-09-09T03:09:40.402Z,0.00
2022-09-09T03:10:39.462Z,0.00
2022-09-09T03:11:39.449Z,0.00
2022-09-09T03:12:39.415Z,0.00
2022-09-09T03:13:39.402Z,0.00
2022-09-09T03:14:39.378Z,0.00
2022-09-09T03:15:39.387Z,0.00
2022-09-09T03:16:39.401Z,0.00
2022-09-09T03:17:39.359Z,0.00
2022-09-09T03:18:39.340Z,0.00
2022-09-09T03:19:39.327Z,0.00
2022-09-09T03:20:39.310Z,0.00
2022-09-09T03:21:39.437Z,0.00
2022-09-09T03:22:39.267Z,0.00
2022-09-09T03:23:39.278Z,0.00
2022-09-09T03:24:39.263Z,0.00
2022-09-09T03:25:39.262Z,0.00
2022-09-09T03:26:39.227Z,0.00
2022-09-09T03:27:39.329Z,0.00
2022-09-09T03:28:39.202Z,0.00
2022-09-09T03:29:39.193Z,0.00
2022-09-09T03:30:39.184Z,0.00
2022-09-09T03:31:39.184Z,0.00
2022-09-09T03:32:40.104Z,0.00
2022-09-09T03:33:39.235Z,0.00
2022-09-09T03:34:39.148Z,7.00
2022-09-09T03:35:39.115Z,7.00
2022-09-09T03:36:39.087Z,0.00
2022-09-09T03:37:40.028Z,0.00
2022-09-09T03:38:39.078Z,0.00
2022-09-09T03:39:39.115Z,0.00
2022-09-09T03:40:39.047Z,0.00
2022-09-09T03:41:39.023Z,0.00
2022-09-09T03:42:39.023Z,0.00
2022-09-09T03:43:39.006Z,0.00
2022-09-09T03:44:39.108Z,0.00
2022-09-09T03:45:39.019Z,0.00
2022-09-09T03:46:38.944Z,0.00
2022-09-09T03:47:38.946Z,0.00
2022-09-09T03:48:39.889Z,0.00
2022-09-09T03:49:38.925Z,0.00
2022-09-09T03:50:39.023Z,0.00
2022-09-09T03:51:38.875Z,0.00
2022-09-09T03:52:38.879Z,0.00
2022-09-09T03:53:38.855Z,0.00
2022-09-09T03:54:38.858Z,0.00
2022-09-09T03:55:38.839Z,0.00
2022-09-09T03:56:38.818Z,0.00
2022-09-09T03:57:39.763Z,0.00
2022-09-09T03:58:38.811Z,0.00
2022-09-09T03:59:38.770Z,0.00
2022-09-09T04:00:38.793Z,0.00
2022-09-09T04:01:38.781Z,0.00
2022-09-09T04:02:38.837Z,0.00
2022-09-09T04:03:38.717Z,0.00
2022-09-09T04:04:38.715Z,0.00
2022-09-09T04:05:38.702Z,0.00
2022-09-09T04:06:38.866Z,0.00
2022-09-09T04:07:38.695Z,0.00
2022-09-09T04:08:38.650Z,0.00
2022-09-09T04:09:38.655Z,0.00
2022-09-09T04:10:38.636Z,0.00
2022-09-09T04:11:38.605Z,0.00
2022-09-09T04:12:38.729Z,0.00
2022-09-09T04:13:38.609Z,0.00
2022-09-09T04:14:38.573Z,0.00
2022-09-09T04:15:38.568Z,0.00
2022-09-09T04:16:38.693Z,1.00
2022-09-09T04:17:38.526Z,1.00
2022-09-09T04:18:38.574Z,1.00
2022-09-09T04:19:38.507Z,0.00
2022-09-09T04:20:38.496Z,2.00
2022-09-09T04:21:38.490Z,2.00
2022-09-09T04:22:38.479Z,4.00
2022-09-09T04:23:38.566Z,0.00
2022-09-09T04:24:39.275Z,4.00
2022-09-09T04:25:38.414Z,6.00
2022-09-09T04:26:38.408Z,5.00
2022-09-09T04:27:38.401Z,7.00
2022-09-09T04:28:38.579Z,9.00
2022-09-09T04:29:38.541Z,7.00
2022-09-09T04:30:38.379Z,20.00
2022-09-09T04:31:38.367Z,10.00
2022-09-09T04:32:38.354Z,18.00
2022-09-09T04:33:40.492Z,25.00
2022-09-09T04:34:38.301Z,32.00
2022-09-09T04:35:38.437Z,32.00
2022-09-09T04:36:38.270Z,32.00
2022-09-09T04:37:38.313Z,45.00
2022-09-09T04:38:38.323Z,37.00
2022-09-09T04:39:38.255Z,59.00
2022-09-09T04:40:38.235Z,55.00
2022-09-09T04:41:38.193Z,64.00
2022-09-09T04:42:38.191Z,68.00
2022-09-09T04:43:38.177Z,77.00
2022-09-09T04:44:38.160Z,91.00
2022-09-09T04:45:38.206Z,93.00
2022-09-09T04:46:38.276Z,112.00
2022-09-09T04:47:38.124Z,117.00
2022-09-09T04:48:38.287Z,118.00
2022-09-09T04:49:38.117Z,137.00
2022-09-09T04:50:38.089Z,148.00
2022-09-09T04:51:38.070Z,161.00
2022-09-09T04:52:38.116Z,172.00
2022-09-09T04:53:38.035Z,185.00
2022-09-09T04:54:38.034Z,196.00
2022-09-09T04:55:38.037Z,210.00
2022-09-09T04:56:38.015Z,229.00
2022-09-09T04:57:37.991Z,250.00
2022-09-09T04:58:38.165Z,269.00
2022-09-09T04:59:37.965Z,288.00
2022-09-09T05:00:38.067Z,314.00
2022-09-09T05:01:37.920Z,351.00
2022-09-09T05:02:37.968Z,375.00
2022-09-09T05:03:37.921Z,390.00
2022-09-09T05:04:37.913Z,417.00
2022-09-09T05:05:37.897Z,442.00
2022-09-09T05:06:37.880Z,461.00
2022-09-09T05:07:37.863Z,485.00
2022-09-09T05:08:37.930Z,503.00
2022-09-09T05:09:38.785Z,520.00
2022-09-09T05:10:37.827Z,535.00
2022-09-09T05:11:37.891Z,568.00
2022-09-09T05:12:37.795Z,610.00
2022-09-09T05:13:41.349Z,635.00
2022-09-09T05:14:37.753Z,661.00
2022-09-09T05:15:37.765Z,698.00
2022-09-09T05:16:37.766Z,732.00
2022-09-09T05:17:38.687Z,741.00
2022-09-09T05:18:37.856Z,751.00
2022-09-09T05:19:37.814Z,779.00
2022-09-09T05:20:37.786Z,800.00
2022-09-09T05:21:37.666Z,823.00
2022-09-09T05:22:37.677Z,845.00
2022-09-09T05:23:37.630Z,876.00
2022-09-09T05:24:37.630Z,895.00
2022-09-09T05:25:37.619Z,930.00
2022-09-09T05:26:38.535Z,940.00
2022-09-09T05:27:37.590Z,977.00
2022-09-09T05:28:37.736Z,1027.00
2022-09-09T05:29:37.569Z,1052.00
2022-09-09T05:30:37.562Z,1092.00
2022-09-09T05:31:37.572Z,1109.00
2022-09-09T05:32:37.523Z,1135.00
2022-09-09T05:33:37.510Z,1141.00
2022-09-09T05:34:37.499Z,1153.00
2022-09-09T05:35:37.478Z,1164.00
2022-09-09T05:36:37.470Z,1183.00
2022-09-09T05:37:37.451Z,1209.00
2022-09-09T05:38:37.504Z,1260.00
2022-09-09T05:39:37.450Z,1306.00
2022-09-09T05:40:37.434Z,1359.00
2022-09-09T05:41:37.381Z,1407.00
2022-09-09T05:42:38.341Z,1446.00
2022-09-09T05:43:37.375Z,1477.00
2022-09-09T05:44:37.345Z,1484.00
2022-09-09T05:45:37.353Z,1508.00
2022-09-09T05:46:37.411Z,1552.00
2022-09-09T05:47:37.304Z,1589.00
2022-09-09T05:48:37.408Z,1634.00
2022-09-09T05:49:37.283Z,1683.00
2022-09-09T05:50:37.282Z,1723.00
2022-09-09T05:51:37.266Z,1788.00
2022-09-09T05:52:37.289Z,1856.00
2022-09-09T05:53:37.241Z,1918.00
2022-09-09T05:54:37.227Z,1996.00
2022-09-09T05:55:37.208Z,2089.00
2022-09-09T05:56:37.187Z,2168.00
2022-09-09T05:57:37.190Z,2253.00
2022-09-09T05:58:37.278Z,2371.00
2022-09-09T05:59:37.160Z,2474.00
2022-09-09T06:00:37.142Z,2559.00
2022-09-09T06:01:37.310Z,2667.00
2022-09-09T06:02:37.281Z,2758.00
2022-09-09T06:03:37.100Z,2811.00
2022-09-09T06:04:37.086Z,2819.00
2022-09-09T06:05:37.072Z,2849.00
2022-09-09T06:06:37.073Z,2867.00
2022-09-09T06:07:37.021Z,2865.00
2022-09-09T06:08:37.100Z,2842.00
2022-09-09T06:09:37.133Z,2823.00
2022-09-09T06:10:37.001Z,2819.00
2022-09-09T06:11:36.994Z,2837.00
2022-09-09T06:12:36.985Z,2890.00
2022-09-09T06:13:36.962Z,2907.00
2022-09-09T06:14:36.933Z,2971.00
2022-09-09T06:15:37.084Z,3047.00
2022-09-09T06:16:36.979Z,3094.00
2022-09-09T06:17:36.917Z,3167.00
2022-09-09T06:18:36.993Z,3206.00
2022-09-09T06:19:36.884Z,3201.00
2022-09-09T06:20:36.896Z,3217.00
2022-09-09T06:21:36.852Z,3246.00
2022-09-09T06:22:36.845Z,3219.00
2022-09-09T06:23:36.829Z,3264.00
2022-09-09T06:24:36.829Z,3310.00
2022-09-09T06:25:36.819Z,3372.00
2022-09-09T06:26:36.788Z,3422.00
2022-09-09T06:27:36.778Z,3494.00
2022-09-09T06:28:36.873Z,3590.00
2022-09-09T06:29:36.750Z,3685.00
2022-09-09T06:30:36.750Z,3756.00
2022-09-09T06:31:36.767Z,3728.00
2022-09-09T06:32:36.722Z,3698.00
2022-09-09T06:33:36.697Z,3692.00
2022-09-09T06:34:36.676Z,3703.00
2022-09-09T06:35:36.671Z,3774.00
2022-09-09T06:36:36.954Z,4049.00
2022-09-09T06:37:36.701Z,4087.00
2022-09-09T06:38:36.828Z,3778.00
2022-09-09T06:39:36.705Z,3760.00
2022-09-09T06:40:36.680Z,3748.00
2022-09-09T06:41:36.659Z,3795.00
2022-09-09T06:42:36.791Z,3780.00
2022-09-09T06:43:36.643Z,3829.00
2022-09-09T06:44:36.553Z,3870.00
2022-09-09T06:45:36.578Z,3919.00
2022-09-09T06:46:36.596Z,3987.00
2022-09-09T06:47:36.506Z,4051.00
2022-09-09T06:48:36.598Z,4164.00
2022-09-09T06:49:36.468Z,4249.00
2022-09-09T06:50:36.465Z,4340.00
2022-09-09T06:51:36.478Z,4407.00
2022-09-09T06:52:36.447Z,4378.00
2022-09-09T06:53:36.432Z,4410.00
2022-09-09T06:54:36.433Z,4445.00
2022-09-09T06:55:36.390Z,4506.00
2022-09-09T06:56:36.398Z,5094.00
2022-09-09T06:57:37.709Z,4647.00
2022-09-09T06:58:36.478Z,4537.00
2022-09-09T06:59:36.341Z,4510.00
2022-09-09T07:00:36.384Z,4763.00
2022-09-09T07:01:36.426Z,4439.00
2022-09-09T07:02:36.320Z,4392.00
2022-09-09T07:03:36.324Z,4281.00
2022-09-09T07:04:36.299Z,4260.00
2022-09-09T07:05:36.275Z,4235.00
2022-09-09T07:06:36.265Z,4008.00
2022-09-09T07:07:36.236Z,3926.00
2022-09-09T07:08:36.301Z,3923.00
2022-09-09T07:09:36.203Z,4001.00
2022-09-09T07:10:36.195Z,4450.00
2022-09-09T07:11:36.197Z,4543.00
2022-09-09T07:12:36.187Z,4626.00
2022-09-09T07:13:36.154Z,4718.00
2022-09-09T07:14:36.163Z,4816.00
2022-09-09T07:15:36.141Z,4973.00
2022-09-09T07:16:36.166Z,5132.00
2022-09-09T07:17:36.110Z,5297.00
2022-09-09T07:18:36.196Z,5321.00
2022-09-09T07:19:36.078Z,5349.00
2022-09-09T07:20:36.090Z,5401.00
2022-09-09T07:21:36.057Z,5070.00
2022-09-09T07:22:36.046Z,5107.00
2022-09-09T07:23:36.478Z,5441.00
2022-09-09T07:24:36.127Z,5345.00
2022-09-09T07:25:36.005Z,5301.00
2022-09-09T07:26:35.998Z,5297.00
2022-09-09T07:27:35.969Z,5185.00
2022-09-09T07:28:35.998Z,5293.00
2022-09-09T07:29:35.953Z,5236.00
2022-09-09T07:30:36.076Z,5228.00
2022-09-09T07:31:35.980Z,5331.00
2022-09-09T07:32:35.920Z,5545.00
2022-09-09T07:33:35.899Z,5598.00
2022-09-09T07:34:35.873Z,5622.00
2022-09-09T07:35:36.574Z,5603.00
2022-09-09T07:36:35.962Z,5542.00
2022-09-09T07:37:35.846Z,5470.00
2022-09-09T07:38:35.863Z,5475.00
2022-09-09T07:39:35.898Z,5443.00
2022-09-09T07:40:35.819Z,5441.00
2022-09-09T07:41:35.799Z,5317.00
2022-09-09T07:42:35.789Z,5288.00
2022-09-09T07:43:35.778Z,5298.00
2022-09-09T07:44:35.748Z,5296.00
2022-09-09T07:45:35.739Z,5262.00
2022-09-09T07:46:35.790Z,5167.00
2022-09-09T07:47:35.707Z,5111.00
2022-09-09T07:48:35.761Z,5129.00
2022-09-09T07:49:36.378Z,5153.00
2022-09-09T07:50:35.658Z,5203.00
2022-09-09T07:51:35.663Z,5265.00
2022-09-09T07:52:35.645Z,5299.00
2022-09-09T07:53:35.735Z,5346.00
2022-09-09T07:54:35.631Z,5417.00
2022-09-09T07:55:35.605Z,5472.00
2022-09-09T07:56:35.591Z,5524.00
2022-09-09T07:57:35.680Z,5598.00
2022-09-09T07:58:38.374Z,5660.00
2022-09-09T07:59:35.557Z,5749.00
2022-09-09T08:00:36.495Z,5875.00
2022-09-09T08:01:35.595Z,5984.00
2022-09-09T08:02:35.505Z,6107.00
2022-09-09T08:03:35.918Z,6235.00
2022-09-09T08:04:35.474Z,6346.00
2022-09-09T08:05:35.477Z,6457.00
2022-09-09T08:06:35.457Z,6586.00
2022-09-09T08:07:35.441Z,6676.00
2022-09-09T08:08:35.437Z,6775.00
2022-09-09T08:09:35.524Z,6850.00
2022-09-09T08:10:35.392Z,6896.00
2022-09-09T08:11:38.785Z,6950.00
2022-09-09T08:12:36.395Z,6993.00
2022-09-09T08:13:35.388Z,7007.00
2022-09-09T08:14:35.359Z,7029.00
2022-09-09T08:15:35.437Z,7048.00
2022-09-09T08:16:35.319Z,7066.00
2022-09-09T08:17:35.351Z,7100.00
2022-09-09T08:18:35.309Z,7207.00
2022-09-09T08:19:35.278Z,7337.00
2022-09-09T08:20:35.317Z,7486.00
2022-09-09T08:21:35.248Z,7689.00
2022-09-09T08:22:35.237Z,7875.00
2022-09-09T08:23:35.280Z,8099.00
2022-09-09T08:24:35.210Z,8373.00
2022-09-09T08:25:35.214Z,8538.00
2022-09-09T08:26:35.244Z,8789.00
2022-09-09T08:27:35.179Z,9042.00
2022-09-09T08:28:35.164Z,9338.00
2022-09-09T08:29:35.150Z,9690.00
2022-09-09T08:30:35.133Z,9875.00
2022-09-09T08:31:35.136Z,10056.00
2022-09-09T08:32:35.125Z,10287.00
2022-09-09T08:33:35.204Z,10567.00
2022-09-09T08:34:35.084Z,10687.00
2022-09-09T08:35:35.101Z,10779.00
2022-09-09T08:36:35.066Z,10853.00
2022-09-09T08:37:35.169Z,10927.00
2022-09-09T08:38:35.038Z,11017.00
2022-09-09T08:39:35.083Z,11186.00
2022-09-09T08:40:35.009Z,11315.00
2022-09-09T08:41:34.987Z,11548.00
2022-09-09T08:42:34.968Z,11713.00
2022-09-09T08:43:35.126Z,11837.00
2022-09-09T08:44:34.942Z,11793.00
2022-09-09T08:45:34.942Z,11583.00
2022-09-09T08:46:34.990Z,11386.00
2022-09-09T08:47:34.908Z,11249.00
2022-09-09T08:48:34.933Z,11052.00
2022-09-09T08:49:35.001Z,11124.00
2022-09-09T08:50:34.861Z,10716.00
2022-09-09T08:51:34.863Z,9955.00
2022-09-09T08:52:34.833Z,10651.00
2022-09-09T08:53:34.854Z,11058.00
2022-09-09T08:54:50.995Z,11072.00
2022-09-09T08:55:35.923Z,11003.00
2022-09-09T08:56:34.797Z,11190.00
2022-09-09T08:57:34.774Z,11394.00
2022-09-09T08:58:34.783Z,11140.00
2022-09-09T08:59:34.767Z,11224.00
2022-09-09T09:00:34.724Z,11128.00
2022-09-09T09:01:35.941Z,11045.00
2022-09-09T09:02:34.721Z,10651.00
2022-09-09T09:03:34.692Z,10699.00
2022-09-09T09:04:34.761Z,10889.00
2022-09-09T09:05:34.687Z,10626.00
2022-09-09T09:06:34.668Z,10317.00
2022-09-09T09:07:34.678Z,10253.00
2022-09-09T09:08:34.678Z,10185.00
2022-09-09T09:09:34.617Z,10121.00
2022-09-09T09:10:42.930Z,10175.00
2022-09-09T09:11:35.622Z,9815.00
2022-09-09T09:12:34.569Z,10910.00
2022-09-09T09:13:34.580Z,10150.00
2022-09-09T09:14:34.564Z,10706.00
2022-09-09T09:15:34.554Z,10949.00
2022-09-09T09:16:34.532Z,10956.00
2022-09-09T09:17:34.515Z,10832.00
2022-09-09T09:18:34.546Z,10279.00
2022-09-09T09:19:34.496Z,9876.00
2022-09-09T09:20:34.475Z,9625.00
2022-09-09T09:21:34.468Z,9250.00
2022-09-09T09:22:34.433Z,9154.00
2022-09-09T09:23:34.448Z,9193.00
2022-09-09T09:24:34.413Z,9319.00
2022-09-09T09:25:34.427Z,9611.00
2022-09-09T09:26:34.410Z,9160.00
2022-09-09T09:27:34.375Z,9149.00
2022-09-09T09:28:34.382Z,9608.00
2022-09-09T09:29:41.824Z,9928.00
2022-09-09T09:30:35.337Z,10187.00
2022-09-09T09:31:34.342Z,9955.00
2022-09-09T09:32:34.309Z,9686.00
2022-09-09T09:33:34.312Z,9774.00
2022-09-09T09:34:34.311Z,10541.00
2022-09-09T09:35:37.407Z,10702.00
2022-09-09T09:36:35.251Z,10647.00
2022-09-09T09:37:34.285Z,10688.00
2022-09-09T09:40:35.232Z,10652.00
2022-09-09T09:41:34.197Z,10496.00
2022-09-09T09:42:34.170Z,10055.00
2022-09-09T09:43:34.244Z,9975.00
2022-09-09T09:44:34.262Z,9370.00
2022-09-09T09:45:34.175Z,9173.00
2022-09-09T09:46:34.231Z,9205.00
2022-09-09T09:47:34.118Z,9286.00
2022-09-09T09:48:34.109Z,10715.00
2022-09-09T09:49:34.083Z,11432.00
2022-09-09T09:50:34.063Z,12173.00
2022-09-09T09:51:34.077Z,12138.00
2022-09-09T09:52:34.047Z,12081.00
2022-09-09T09:53:34.099Z,12309.00
2022-09-09T09:54:34.037Z,12554.00
2022-09-09T09:55:34.015Z,12806.00
2022-09-09T09:56:34.133Z,12833.00
2022-09-09T09:57:34.061Z,12677.00
2022-09-09T09:58:34.041Z,10722.00
2022-09-09T09:59:41.280Z,8761.00
2022-09-09T10:00:35.051Z,8116.00
2022-09-09T10:01:34.101Z,8202.00
2022-09-09T10:02:33.933Z,8194.00
2022-09-09T10:03:33.904Z,8074.00
2022-09-09T10:04:33.960Z,7924.00
2022-09-09T10:05:36.205Z,7495.00
2022-09-09T10:06:33.860Z,7105.00
2022-09-09T10:07:33.854Z,7131.00
2022-09-09T10:08:33.845Z,7705.00
2022-09-09T10:09:33.831Z,8355.00
2022-09-09T10:10:33.932Z,8170.00
2022-09-09T10:11:33.831Z,7412.00
2022-09-09T10:12:33.772Z,7171.00
2022-09-09T10:13:33.777Z,7728.00
2022-09-09T10:14:33.758Z,8144.00
2022-09-09T10:15:33.799Z,8242.00
2022-09-09T10:16:33.737Z,7898.00
2022-09-09T10:18:44.912Z,0.00
2022-09-09T10:19:44.739Z,7521.00
2022-09-09T10:20:44.727Z,7515.00
2022-09-09T10:21:45.049Z,7563.00
2022-09-09T10:22:45.053Z,7543.00
2022-09-09T10:23:44.712Z,7550.00
2022-09-09T10:24:45.023Z,7657.00
2022-09-09T10:25:44.938Z,7707.00
2022-09-09T10:26:44.948Z,7925.00
2022-09-09T10:27:44.740Z,8083.00
2022-09-09T10:28:44.588Z,8064.00
2022-09-09T10:29:44.583Z,7947.00
2022-09-09T10:30:44.612Z,7931.00
2022-09-09T10:31:44.542Z,8136.00
2022-09-09T10:32:44.574Z,8084.00
2022-09-09T10:33:44.623Z,7815.00
2022-09-09T10:34:44.503Z,7690.00
2022-09-09T10:35:44.510Z,7696.00
2022-09-09T10:36:44.481Z,7717.00
2022-09-09T10:37:44.485Z,7956.00
2022-09-09T10:38:44.517Z,8409.00
2022-09-09T10:39:44.458Z,8514.00
2022-09-09T10:40:44.425Z,8588.00
2022-09-09T10:41:44.419Z,8808.00
2022-09-09T10:42:44.411Z,8983.00
2022-09-09T10:43:45.078Z,9066.00
2022-09-09T10:44:44.500Z,9064.00
2022-09-09T10:45:44.485Z,9031.00
2022-09-09T10:46:44.345Z,9088.00
2022-09-09T10:47:45.292Z,9344.00
2022-09-09T10:48:44.329Z,9604.00
2022-09-09T10:49:44.311Z,9771.00
2022-09-09T10:51:00.449Z,9946.00
2022-09-09T10:51:45.277Z,10088.00
2022-09-09T10:52:44.273Z,10158.00
2022-09-09T10:53:44.247Z,10235.00
2022-09-09T10:54:44.230Z,10278.00
2022-09-09T10:55:44.232Z,10337.00
2022-09-09T10:56:44.233Z,10394.00
2022-09-09T10:57:44.191Z,10461.00
2022-09-09T10:58:44.183Z,10555.00
2022-09-09T10:59:44.176Z,10647.00
2022-09-09T11:00:44.153Z,10769.00
2022-09-09T11:01:44.285Z,10896.00
2022-09-09T11:02:44.147Z,11028.00
2022-09-09T11:03:44.112Z,11195.00
2022-09-09T11:04:44.119Z,11357.00
2022-09-09T11:05:44.074Z,11561.00
2022-09-09T11:06:44.151Z,11829.00
2022-09-09T11:07:44.200Z,12130.00
2022-09-09T11:08:44.044Z,12455.00
2022-09-09T11:09:44.039Z,12809.00
2022-09-09T11:10:44.030Z,13308.00
2022-09-09T11:11:43.997Z,14086.00
2022-09-09T11:12:44.012Z,15307.00
2022-09-09T11:13:43.978Z,16231.00
2022-09-09T11:14:43.963Z,17084.00
2022-09-09T11:15:44.436Z,17932.00
2022-09-09T11:16:44.002Z,19218.00
2022-09-09T11:17:43.941Z,19646.00
2022-09-09T11:18:43.924Z,20234.00
2022-09-09T11:19:43.890Z,20846.00
2022-09-09T11:20:43.894Z,20988.00
2022-09-09T11:21:43.871Z,21026.00
2022-09-09T11:22:43.862Z,20872.00
2022-09-09T11:23:43.882Z,20601.00
2022-09-09T11:24:43.857Z,20586.00
2022-09-09T11:25:43.878Z,20853.00
2022-09-09T11:26:43.821Z,21074.00
2022-09-09T11:27:43.804Z,21511.00
2022-09-09T11:28:43.931Z,21399.00
2022-09-09T11:29:43.777Z,21486.00
2022-09-09T11:30:55.951Z,21584.00
2022-09-09T11:31:44.783Z,22356.00
2022-09-09T11:32:43.748Z,22721.00
2022-09-09T11:33:43.707Z,22705.00
2022-09-09T11:34:43.728Z,22612.00
2022-09-09T11:35:43.698Z,22358.00
2022-09-09T11:36:43.680Z,22112.00
2022-09-09T11:37:43.671Z,21649.00
2022-09-09T11:38:43.663Z,22041.00
2022-09-09T11:39:43.646Z,21439.00
2022-09-09T11:40:43.641Z,21811.00
2022-09-09T11:41:43.609Z,17585.00
2022-09-09T11:42:43.590Z,21050.00
2022-09-09T11:43:43.585Z,20196.00
2022-09-09T11:44:43.585Z,19438.00
2022-09-09T11:45:43.693Z,18144.00
2022-09-09T11:46:43.581Z,19223.00
2022-09-09T11:47:43.538Z,20254.00
2022-09-09T11:48:43.513Z,21385.00
2022-09-09T11:49:43.508Z,22154.00
2022-09-09T11:50:43.497Z,22120.00
2022-09-09T11:51:43.474Z,21762.00
2022-09-09T11:52:43.478Z,21504.00
2022-09-09T11:53:43.447Z,21936.00
2022-09-09T11:54:43.428Z,22255.00
2022-09-09T11:55:43.428Z,22343.00
2022-09-09T11:56:43.417Z,22542.00
2022-09-09T11:57:46.462Z,23052.00
2022-09-09T11:58:44.400Z,23106.00
2022-09-09T11:59:43.369Z,23368.00
2022-09-09T12:00:43.360Z,17441.00
2022-09-09T12:01:43.352Z,21342.00
2022-09-09T12:02:43.389Z,17814.00
2022-09-09T12:03:43.349Z,20295.00
2022-09-09T12:04:43.397Z,18767.00
2022-09-09T12:05:43.281Z,17845.00
2022-09-09T12:06:43.309Z,16825.00
2022-09-09T12:07:43.274Z,15505.00
2022-09-09T12:08:43.254Z,15633.00
2022-09-09T12:09:43.262Z,18062.00
2022-09-09T12:10:43.245Z,18704.00
2022-09-09T12:11:43.228Z,18787.00
2022-09-09T12:12:44.265Z,18675.00
2022-09-09T12:13:43.192Z,17133.00
2022-09-09T12:14:43.176Z,17221.00
2022-09-09T12:15:43.173Z,18516.00
2022-09-09T12:16:43.177Z,18231.00
2022-09-09T12:17:43.152Z,18682.00
2022-09-09T12:18:43.219Z,20454.00
2022-09-09T12:19:43.135Z,20329.00
2022-09-09T12:20:43.128Z,19872.00
2022-09-09T12:21:43.104Z,15959.00
2022-09-09T12:22:43.132Z,15790.00
2022-09-09T12:23:43.074Z,17316.00
2022-09-09T12:24:43.055Z,19890.00
2022-09-09T12:25:43.035Z,23086.00
2022-09-09T12:26:43.056Z,22463.00
2022-09-09T12:27:42.993Z,22778.00
2022-09-09T12:28:43.006Z,22034.00
2022-09-09T12:29:42.965Z,20027.00
2022-09-09T12:30:42.978Z,20523.00
2022-09-09T12:31:45.713Z,18800.00